sensor_id;sensor_type;location;lat;lon;timestamp;P1;durP1;ratioP1;P2;durP2;ratioP2
20012;SDS011;10167;42.852;23.042;2022-07-12T00:01:19;1.75;;;1.27;;
20012;SDS011;10167;42.852;23.042;2022-07-12T00:06:59;2.75;;;1.52;;
20012;SDS011;10167;42.852;23.042;2022-07-12T00:09:27;2.92;;;1.65;;
20012;SDS011;10167;42.852;23.042;2022-07-12T00:11:54;1.92;;;1.33;;
20012;SDS011;10167;42.852;23.042;2022-07-12T00:14:22;1.45;;;1.20;;
20012;SDS011;10167;42.852;23.042;2022-07-12T00:16:49;2.13;;;1.40;;
20012;SDS011;10167;42.852;23.042;2022-07-12T00:19:17;2.20;;;1.73;;
20012;SDS011;10167;42.852;23.042;2022-07-12T00:21:45;3.08;;;1.33;;
20012;SDS011;10167;42.852;23.042;2022-07-12T00:29:16;2.55;;;1.88;;
20012;SDS011;10167;42.852;23.042;2022-07-12T00:31:43;1.90;;;1.65;;
20012;SDS011;10167;42.852;23.042;2022-07-12T00:34:11;2.42;;;1.52;;
20012;SDS011;10167;42.852;23.042;2022-07-12T00:36:38;1.85;;;1.40;;
20012;SDS011;10167;42.852;23.042;2022-07-12T00:39:06;1.80;;;1.52;;
20012;SDS011;10167;42.852;23.042;2022-07-12T00:41:33;2.13;;;1.52;;
20012;SDS011;10167;42.852;23.042;2022-07-12T00:44:00;1.50;;;1.20;;
20012;SDS011;10167;42.852;23.042;2022-07-12T00:51:32;1.90;;;1.45;;
20012;SDS011;10167;42.852;23.042;2022-07-12T00:54:00;2.35;;;1.80;;
20012;SDS011;10167;42.852;23.042;2022-07-12T00:56:28;1.92;;;1.45;;
20012;SDS011;10167;42.852;23.042;2022-07-12T00:58:56;2.03;;;1.67;;
20012;SDS011;10167;42.852;23.042;2022-07-12T01:01:23;2.33;;;1.50;;
20012;SDS011;10167;42.852;23.042;2022-07-12T01:03:52;2.15;;;1.42;;
20012;SDS011;10167;42.852;23.042;2022-07-12T01:06:20;1.60;;;1.33;;
20012;SDS011;10167;42.852;23.042;2022-07-12T01:12:05;1.90;;;1.42;;
20012;SDS011;10167;42.852;23.042;2022-07-12T01:14:33;5.32;;;1.33;;
20012;SDS011;10167;42.852;23.042;2022-07-12T01:17:01;2.63;;;1.60;;
20012;SDS011;10167;42.852;23.042;2022-07-12T01:19:29;2.13;;;1.52;;
20012;SDS011;10167;42.852;23.042;2022-07-12T01:21:58;1.13;;;1.00;;
20012;SDS011;10167;42.852;23.042;2022-07-12T01:24:29;1.58;;;1.38;;
20012;SDS011;10167;42.852;23.042;2022-07-12T01:26:57;1.83;;;1.08;;
20012;SDS011;10167;42.852;23.042;2022-07-12T01:34:29;1.60;;;1.05;;
20012;SDS011;10167;42.852;23.042;2022-07-12T01:36:57;1.67;;;1.20;;
20012;SDS011;10167;42.852;23.042;2022-07-12T01:39:24;0.90;;;0.90;;
20012;SDS011;10167;42.852;23.042;2022-07-12T01:41:52;2.97;;;1.00;;
20012;SDS011;10167;42.852;23.042;2022-07-12T01:44:19;2.55;;;1.50;;
20012;SDS011;10167;42.852;23.042;2022-07-12T01:46:47;1.55;;;1.35;;
20012;SDS011;10167;42.852;23.042;2022-07-12T01:49:15;1.40;;;1.30;;
20012;SDS011;10167;42.852;23.042;2022-07-12T01:56:46;1.55;;;1.13;;
20012;SDS011;10167;42.852;23.042;2022-07-12T01:59:13;1.77;;;1.40;;
20012;SDS011;10167;42.852;23.042;2022-07-12T02:01:41;1.20;;;1.10;;
20012;SDS011;10167;42.852;23.042;2022-07-12T02:04:10;3.08;;;1.63;;
20012;SDS011;10167;42.852;23.042;2022-07-12T02:06:38;1.25;;;1.13;;
20012;SDS011;10167;42.852;23.042;2022-07-12T02:09:06;2.22;;;1.25;;
20012;SDS011;10167;42.852;23.042;2022-07-12T02:11:34;1.73;;;1.38;;
20012;SDS011;10167;42.852;23.042;2022-07-12T02:19:05;1.50;;;1.20;;
20012;SDS011;10167;42.852;23.042;2022-07-12T02:21:33;1.35;;;1.25;;
20012;SDS011;10167;42.852;23.042;2022-07-12T02:24:00;1.10;;;1.00;;
20012;SDS011;10167;42.852;23.042;2022-07-12T02:26:28;1.08;;;1.00;;
20012;SDS011;10167;42.852;23.042;2022-07-12T02:28:56;2.00;;;1.05;;
20012;SDS011;10167;42.852;23.042;2022-07-12T02:31:23;3.03;;;2.22;;
20012;SDS011;10167;42.852;23.042;2022-07-12T02:33:52;2.30;;;1.50;;
20012;SDS011;10167;42.852;23.042;2022-07-12T02:41:23;1.27;;;1.13;;
20012;SDS011;10167;42.852;23.042;2022-07-12T02:43:51;1.80;;;1.30;;
20012;SDS011;10167;42.852;23.042;2022-07-12T02:46:19;1.85;;;1.52;;
20012;SDS011;10167;42.852;23.042;2022-07-12T02:48:46;1.80;;;1.45;;
20012;SDS011;10167;42.852;23.042;2022-07-12T02:51:14;1.90;;;1.25;;
20012;SDS011;10167;42.852;23.042;2022-07-12T02:53:41;3.05;;;1.95;;
20012;SDS011;10167;42.852;23.042;2022-07-12T02:56:09;1.83;;;1.45;;
20012;SDS011;10167;42.852;23.042;2022-07-12T03:03:41;2.15;;;1.35;;
20012;SDS011;10167;42.852;23.042;2022-07-12T03:06:09;3.83;;;1.58;;
20012;SDS011;10167;42.852;23.042;2022-07-12T03:08:37;2.10;;;1.33;;
20012;SDS011;10167;42.852;23.042;2022-07-12T03:11:05;2.25;;;1.58;;
20012;SDS011;10167;42.852;23.042;2022-07-12T03:13:32;2.50;;;1.65;;
20012;SDS011;10167;42.852;23.042;2022-07-12T03:16:00;1.73;;;1.30;;
20012;SDS011;10167;42.852;23.042;2022-07-12T03:18:28;7.60;;;1.23;;
20012;SDS011;10167;42.852;23.042;2022-07-12T03:25:59;2.38;;;1.27;;
20012;SDS011;10167;42.852;23.042;2022-07-12T03:28:27;1.50;;;1.17;;
20012;SDS011;10167;42.852;23.042;2022-07-12T03:30:54;2.28;;;1.38;;
20012;SDS011;10167;42.852;23.042;2022-07-12T03:33:22;3.53;;;1.65;;
20012;SDS011;10167;42.852;23.042;2022-07-12T03:35:56;1.98;;;1.30;;
20012;SDS011;10167;42.852;23.042;2022-07-12T03:38:24;2.30;;;1.45;;
20012;SDS011;10167;42.852;23.042;2022-07-12T03:40:51;1.27;;;1.15;;
20012;SDS011;10167;42.852;23.042;2022-07-12T03:48:19;1.75;;;1.15;;
20012;SDS011;10167;42.852;23.042;2022-07-12T03:50:46;2.55;;;1.23;;
20012;SDS011;10167;42.852;23.042;2022-07-12T03:53:14;1.50;;;1.10;;
20012;SDS011;10167;42.852;23.042;2022-07-12T03:55:42;3.13;;;1.52;;
20012;SDS011;10167;42.852;23.042;2022-07-12T03:58:09;2.20;;;1.10;;
20012;SDS011;10167;42.852;23.042;2022-07-12T04:00:37;1.75;;;1.48;;
20012;SDS011;10167;42.852;23.042;2022-07-12T04:03:06;2.00;;;1.15;;
20012;SDS011;10167;42.852;23.042;2022-07-12T04:10:37;1.35;;;1.13;;
20012;SDS011;10167;42.852;23.042;2022-07-12T04:13:05;3.03;;;1.20;;
20012;SDS011;10167;42.852;23.042;2022-07-12T04:15:32;3.80;;;1.10;;
20012;SDS011;10167;42.852;23.042;2022-07-12T04:18:00;4.22;;;1.27;;
20012;SDS011;10167;42.852;23.042;2022-07-12T04:20:29;2.65;;;1.52;;
20012;SDS011;10167;42.852;23.042;2022-07-12T04:22:56;1.58;;;1.05;;
20012;SDS011;10167;42.852;23.042;2022-07-12T04:25:24;1.52;;;1.25;;
20012;SDS011;10167;42.852;23.042;2022-07-12T04:32:55;2.00;;;1.40;;
20012;SDS011;10167;42.852;23.042;2022-07-12T04:35:22;4.30;;;1.27;;
20012;SDS011;10167;42.852;23.042;2022-07-12T04:37:50;4.63;;;1.08;;
20012;SDS011;10167;42.852;23.042;2022-07-12T04:40:17;2.17;;;1.35;;
20012;SDS011;10167;42.852;23.042;2022-07-12T04:42:45;1.70;;;1.30;;
20012;SDS011;10167;42.852;23.042;2022-07-12T04:45:13;1.42;;;1.05;;
20012;SDS011;10167;42.852;23.042;2022-07-12T04:47:40;1.55;;;1.13;;
20012;SDS011;10167;42.852;23.042;2022-07-12T04:55:12;4.13;;;1.30;;
20012;SDS011;10167;42.852;23.042;2022-07-12T04:57:39;1.30;;;1.20;;
20012;SDS011;10167;42.852;23.042;2022-07-12T05:00:07;1.45;;;1.10;;
20012;SDS011;10167;42.852;23.042;2022-07-12T05:02:35;1.90;;;1.40;;
20012;SDS011;10167;42.852;23.042;2022-07-12T05:05:04;1.70;;;1.42;;
20012;SDS011;10167;42.852;23.042;2022-07-12T05:07:32;1.58;;;1.10;;
20012;SDS011;10167;42.852;23.042;2022-07-12T05:09:59;1.45;;;0.98;;
20012;SDS011;10167;42.852;23.042;2022-07-12T05:18:18;1.55;;;1.20;;
20012;SDS011;10167;42.852;23.042;2022-07-12T05:20:45;3.42;;;1.10;;
20012;SDS011;10167;42.852;23.042;2022-07-12T05:23:18;1.40;;;1.20;;
20012;SDS011;10167;42.852;23.042;2022-07-12T05:25:45;1.17;;;1.02;;
20012;SDS011;10167;42.852;23.042;2022-07-12T05:28:13;1.63;;;0.98;;
20012;SDS011;10167;42.852;23.042;2022-07-12T05:30:41;1.10;;;0.90;;
20012;SDS011;10167;42.852;23.042;2022-07-12T05:33:09;4.70;;;1.05;;
20012;SDS011;10167;42.852;23.042;2022-07-12T05:40:41;1.35;;;1.02;;
20012;SDS011;10167;42.852;23.042;2022-07-12T05:43:08;0.93;;;0.85;;
20012;SDS011;10167;42.852;23.042;2022-07-12T05:45:36;1.55;;;1.00;;
20012;SDS011;10167;42.852;23.042;2022-07-12T05:48:04;0.85;;;0.73;;
20012;SDS011;10167;42.852;23.042;2022-07-12T05:50:32;1.75;;;1.15;;
20012;SDS011;10167;42.852;23.042;2022-07-12T05:52:59;0.82;;;0.80;;
20012;SDS011;10167;42.852;23.042;2022-07-12T05:55:45;2.83;;;1.10;;
20012;SDS011;10167;42.852;23.042;2022-07-12T06:03:17;1.83;;;0.80;;
20012;SDS011;10167;42.852;23.042;2022-07-12T06:05:44;1.10;;;0.88;;
20012;SDS011;10167;42.852;23.042;2022-07-12T06:08:12;1.60;;;1.00;;
20012;SDS011;10167;42.852;23.042;2022-07-12T06:10:39;1.85;;;0.93;;
20012;SDS011;10167;42.852;23.042;2022-07-12T06:13:07;1.35;;;1.10;;
20012;SDS011;10167;42.852;23.042;2022-07-12T06:15:36;4.13;;;1.20;;
20012;SDS011;10167;42.852;23.042;2022-07-12T06:18:03;1.17;;;0.90;;
20012;SDS011;10167;42.852;23.042;2022-07-12T06:25:35;1.88;;;0.93;;
20012;SDS011;10167;42.852;23.042;2022-07-12T06:28:10;1.80;;;1.00;;
20012;SDS011;10167;42.852;23.042;2022-07-12T06:30:38;1.70;;;0.80;;
20012;SDS011;10167;42.852;23.042;2022-07-12T06:33:06;1.92;;;0.88;;
20012;SDS011;10167;42.852;23.042;2022-07-12T06:35:33;1.77;;;1.08;;
20012;SDS011;10167;42.852;23.042;2022-07-12T06:38:01;3.20;;;0.90;;
20012;SDS011;10167;42.852;23.042;2022-07-12T06:40:29;1.60;;;0.98;;
20012;SDS011;10167;42.852;23.042;2022-07-12T06:48:01;0.75;;;0.75;;
20012;SDS011;10167;42.852;23.042;2022-07-12T06:50:29;1.60;;;1.00;;
20012;SDS011;10167;42.852;23.042;2022-07-12T06:52:56;1.70;;;1.08;;
20012;SDS011;10167;42.852;23.042;2022-07-12T06:55:24;1.23;;;0.85;;
20012;SDS011;10167;42.852;23.042;2022-07-12T06:57:52;2.20;;;0.73;;
20012;SDS011;10167;42.852;23.042;2022-07-12T07:00:19;1.88;;;0.77;;
20012;SDS011;10167;42.852;23.042;2022-07-12T07:02:47;1.58;;;0.85;;
20012;SDS011;10167;42.852;23.042;2022-07-12T07:07:54;1.38;;;0.75;;
20012;SDS011;10167;42.852;23.042;2022-07-12T07:10:21;1.85;;;1.00;;
20012;SDS011;10167;42.852;23.042;2022-07-12T07:12:49;0.95;;;0.60;;
20012;SDS011;10167;42.852;23.042;2022-07-12T07:15:17;0.88;;;0.88;;
20012;SDS011;10167;42.852;23.042;2022-07-12T07:17:45;1.17;;;0.75;;
20012;SDS011;10167;42.852;23.042;2022-07-12T07:20:13;1.25;;;0.70;;
20012;SDS011;10167;42.852;23.042;2022-07-12T07:22:40;2.00;;;1.00;;
20012;SDS011;10167;42.852;23.042;2022-07-12T07:29:35;0.50;;;0.50;;
20012;SDS011;10167;42.852;23.042;2022-07-12T07:32:21;3.65;;;1.00;;
20012;SDS011;10167;42.852;23.042;2022-07-12T07:34:48;1.45;;;0.77;;
20012;SDS011;10167;42.852;23.042;2022-07-12T07:37:16;6.68;;;1.73;;
20012;SDS011;10167;42.852;23.042;2022-07-12T07:39:43;6.35;;;0.80;;
20012;SDS011;10167;42.852;23.042;2022-07-12T07:42:11;6.88;;;0.80;;
20012;SDS011;10167;42.852;23.042;2022-07-12T07:44:39;2.80;;;0.90;;
20012;SDS011;10167;42.852;23.042;2022-07-12T07:52:28;1.15;;;0.70;;
20012;SDS011;10167;42.852;23.042;2022-07-12T07:54:55;0.50;;;0.50;;
20012;SDS011;10167;42.852;23.042;2022-07-12T07:57:23;0.45;;;0.45;;
20012;SDS011;10167;42.852;23.042;2022-07-12T07:59:50;4.65;;;0.55;;
20012;SDS011;10167;42.852;23.042;2022-07-12T08:02:18;0.75;;;0.60;;
20012;SDS011;10167;42.852;23.042;2022-07-12T08:04:45;0.47;;;0.47;;
20012;SDS011;10167;42.852;23.042;2022-07-12T08:07:13;6.00;;;1.38;;
20012;SDS011;10167;42.852;23.042;2022-07-12T08:15:04;2.83;;;0.63;;
20012;SDS011;10167;42.852;23.042;2022-07-12T08:17:32;0.68;;;0.55;;
20012;SDS011;10167;42.852;23.042;2022-07-12T08:20:06;1.27;;;0.60;;
20012;SDS011;10167;42.852;23.042;2022-07-12T08:22:54;1.65;;;0.75;;
20012;SDS011;10167;42.852;23.042;2022-07-12T08:25:22;1.27;;;0.60;;
20012;SDS011;10167;42.852;23.042;2022-07-12T08:27:50;0.68;;;0.50;;
20012;SDS011;10167;42.852;23.042;2022-07-12T08:30:18;1.08;;;0.60;;
20012;SDS011;10167;42.852;23.042;2022-07-12T08:37:55;1.58;;;0.60;;
20012;SDS011;10167;42.852;23.042;2022-07-12T08:40:23;1.73;;;0.52;;
20012;SDS011;10167;42.852;23.042;2022-07-12T08:42:50;6.63;;;0.65;;
20012;SDS011;10167;42.852;23.042;2022-07-12T08:45:18;1.42;;;0.68;;
20012;SDS011;10167;42.852;23.042;2022-07-12T08:47:46;2.88;;;1.27;;
20012;SDS011;10167;42.852;23.042;2022-07-12T08:50:14;6.95;;;0.80;;
20012;SDS011;10167;42.852;23.042;2022-07-12T08:52:44;0.65;;;0.40;;
20012;SDS011;10167;42.852;23.042;2022-07-12T09:00:23;1.52;;;0.52;;
20012;SDS011;10167;42.852;23.042;2022-07-12T09:02:53;5.38;;;0.60;;
20012;SDS011;10167;42.852;23.042;2022-07-12T09:05:22;2.92;;;0.68;;
20012;SDS011;10167;42.852;23.042;2022-07-12T09:07:51;1.52;;;0.88;;
20012;SDS011;10167;42.852;23.042;2022-07-12T09:10:29;0.98;;;0.50;;
20012;SDS011;10167;42.852;23.042;2022-07-12T09:12:57;0.55;;;0.50;;
20012;SDS011;10167;42.852;23.042;2022-07-12T09:15:25;0.50;;;0.45;;
20012;SDS011;10167;42.852;23.042;2022-07-12T09:22:58;3.08;;;0.50;;
20012;SDS011;10167;42.852;23.042;2022-07-12T09:25:26;2.47;;;0.70;;
20012;SDS011;10167;42.852;23.042;2022-07-12T09:27:55;0.95;;;0.68;;
20012;SDS011;10167;42.852;23.042;2022-07-12T09:30:23;1.48;;;0.50;;
20012;SDS011;10167;42.852;23.042;2022-07-12T09:32:54;2.33;;;0.68;;
20012;SDS011;10167;42.852;23.042;2022-07-12T09:35:42;2.70;;;0.60;;
20012;SDS011;10167;42.852;23.042;2022-07-12T09:41:16;2.22;;;0.63;;
20012;SDS011;10167;42.852;23.042;2022-07-12T09:43:45;0.40;;;0.40;;
20012;SDS011;10167;42.852;23.042;2022-07-12T09:46:12;0.40;;;0.40;;
20012;SDS011;10167;42.852;23.042;2022-07-12T09:48:41;0.77;;;0.40;;
20012;SDS011;10167;42.852;23.042;2022-07-12T09:51:09;3.72;;;0.50;;
20012;SDS011;10167;42.852;23.042;2022-07-12T09:53:41;1.15;;;0.70;;
20012;SDS011;10167;42.852;23.042;2022-07-12T09:56:11;0.60;;;0.60;;
20012;SDS011;10167;42.852;23.042;2022-07-12T10:03:11;11.00;;;0.93;;
20012;SDS011;10167;42.852;23.042;2022-07-12T10:05:40;3.40;;;0.85;;
20012;SDS011;10167;42.852;23.042;2022-07-12T10:08:09;2.08;;;0.63;;
20012;SDS011;10167;42.852;23.042;2022-07-12T10:10:37;0.60;;;0.60;;
20012;SDS011;10167;42.852;23.042;2022-07-12T10:13:05;1.33;;;0.55;;
20012;SDS011;10167;42.852;23.042;2022-07-12T10:15:33;0.80;;;0.70;;
20012;SDS011;10167;42.852;23.042;2022-07-12T10:18:02;1.35;;;0.77;;
20012;SDS011;10167;42.852;23.042;2022-07-12T10:25:31;0.73;;;0.70;;
20012;SDS011;10167;42.852;23.042;2022-07-12T10:27:59;1.00;;;0.82;;
20012;SDS011;10167;42.852;23.042;2022-07-12T10:30:28;1.30;;;0.70;;
20012;SDS011;10167;42.852;23.042;2022-07-12T10:32:56;1.15;;;0.68;;
20012;SDS011;10167;42.852;23.042;2022-07-12T10:35:26;0.57;;;0.47;;
20012;SDS011;10167;42.852;23.042;2022-07-12T10:40:47;1.90;;;0.63;;
20012;SDS011;10167;42.852;23.042;2022-07-12T10:48:47;1.70;;;0.77;;
20012;SDS011;10167;42.852;23.042;2022-07-12T10:51:15;1.67;;;0.73;;
20012;SDS011;10167;42.852;23.042;2022-07-12T10:53:46;1.52;;;1.00;;
20012;SDS011;10167;42.852;23.042;2022-07-12T10:56:17;3.00;;;0.70;;
20012;SDS011;10167;42.852;23.042;2022-07-12T10:58:55;3.10;;;1.20;;
20012;SDS011;10167;42.852;23.042;2022-07-12T11:01:25;1.10;;;1.00;;
20012;SDS011;10167;42.852;23.042;2022-07-12T11:03:55;0.77;;;0.70;;
20012;SDS011;10167;42.852;23.042;2022-07-12T11:11:41;0.50;;;0.50;;
20012;SDS011;10167;42.852;23.042;2022-07-12T11:14:11;1.80;;;0.80;;
20012;SDS011;10167;42.852;23.042;2022-07-12T11:16:42;0.52;;;0.52;;
20012;SDS011;10167;42.852;23.042;2022-07-12T11:19:11;1.13;;;0.90;;
20012;SDS011;10167;42.852;23.042;2022-07-12T11:21:39;3.65;;;1.00;;
20012;SDS011;10167;42.852;23.042;2022-07-12T11:24:16;2.75;;;0.65;;
20012;SDS011;10167;42.852;23.042;2022-07-12T11:26:46;1.60;;;0.70;;
20012;SDS011;10167;42.852;23.042;2022-07-12T11:34:22;2.55;;;0.90;;
20012;SDS011;10167;42.852;23.042;2022-07-12T11:36:51;0.82;;;0.60;;
20012;SDS011;10167;42.852;23.042;2022-07-12T11:39:29;1.58;;;0.82;;
20012;SDS011;10167;42.852;23.042;2022-07-12T11:41:58;1.10;;;0.55;;
20012;SDS011;10167;42.852;23.042;2022-07-12T11:44:40;2.47;;;0.90;;
20012;SDS011;10167;42.852;23.042;2022-07-12T11:47:09;1.15;;;0.80;;
20012;SDS011;10167;42.852;23.042;2022-07-12T11:49:38;0.70;;;0.70;;
20012;SDS011;10167;42.852;23.042;2022-07-12T11:56:31;2.38;;;0.65;;
20012;SDS011;10167;42.852;23.042;2022-07-12T11:58:59;2.92;;;0.80;;
20012;SDS011;10167;42.852;23.042;2022-07-12T12:01:26;2.30;;;0.85;;
20012;SDS011;10167;42.852;23.042;2022-07-12T12:03:54;2.63;;;0.88;;
20012;SDS011;10167;42.852;23.042;2022-07-12T12:06:22;0.70;;;0.70;;
20012;SDS011;10167;42.852;23.042;2022-07-12T12:08:50;0.50;;;0.50;;
20012;SDS011;10167;42.852;23.042;2022-07-12T12:11:25;1.23;;;0.57;;
20012;SDS011;10167;42.852;23.042;2022-07-12T12:18:59;2.92;;;1.08;;
20012;SDS011;10167;42.852;23.042;2022-07-12T12:21:28;3.15;;;0.70;;
20012;SDS011;10167;42.852;23.042;2022-07-12T12:24:08;1.42;;;0.88;;
20012;SDS011;10167;42.852;23.042;2022-07-12T12:26:37;3.28;;;0.90;;
20012;SDS011;10167;42.852;23.042;2022-07-12T12:29:04;0.93;;;0.77;;
20012;SDS011;10167;42.852;23.042;2022-07-12T12:31:32;1.67;;;0.80;;
20012;SDS011;10167;42.852;23.042;2022-07-12T12:34:00;1.02;;;0.90;;
20012;SDS011;10167;42.852;23.042;2022-07-12T12:39:28;0.75;;;0.63;;
20012;SDS011;10167;42.852;23.042;2022-07-12T12:41:56;1.65;;;0.90;;
20012;SDS011;10167;42.852;23.042;2022-07-12T12:44:24;1.15;;;0.90;;
20012;SDS011;10167;42.852;23.042;2022-07-12T12:46:53;0.85;;;0.85;;
20012;SDS011;10167;42.852;23.042;2022-07-12T12:49:45;1.67;;;0.90;;
20012;SDS011;10167;42.852;23.042;2022-07-12T12:52:22;0.70;;;0.68;;
20012;SDS011;10167;42.852;23.042;2022-07-12T12:57:43;2.25;;;0.82;;
20012;SDS011;10167;42.852;23.042;2022-07-12T13:00:11;4.43;;;0.57;;
20012;SDS011;10167;42.852;23.042;2022-07-12T13:02:39;3.95;;;1.15;;
20012;SDS011;10167;42.852;23.042;2022-07-12T13:05:07;1.35;;;0.90;;
20012;SDS011;10167;42.852;23.042;2022-07-12T13:07:35;3.78;;;1.23;;
20012;SDS011;10167;42.852;23.042;2022-07-12T13:10:03;4.68;;;0.80;;
20012;SDS011;10167;42.852;23.042;2022-07-12T13:12:31;2.67;;;0.60;;
20012;SDS011;10167;42.852;23.042;2022-07-12T13:20:02;1.67;;;0.73;;
20012;SDS011;10167;42.852;23.042;2022-07-12T13:22:31;1.08;;;0.57;;
20012;SDS011;10167;42.852;23.042;2022-07-12T13:24:59;0.63;;;0.63;;
20012;SDS011;10167;42.852;23.042;2022-07-12T13:27:26;2.63;;;0.93;;
20012;SDS011;10167;42.852;23.042;2022-07-12T13:29:55;3.42;;;1.05;;
20012;SDS011;10167;42.852;23.042;2022-07-12T13:32:22;0.60;;;0.60;;
20012;SDS011;10167;42.852;23.042;2022-07-12T13:34:50;3.42;;;1.00;;
20012;SDS011;10167;42.852;23.042;2022-07-12T13:42:22;5.78;;;0.82;;
20012;SDS011;10167;42.852;23.042;2022-07-12T13:44:49;0.93;;;0.63;;
20012;SDS011;10167;42.852;23.042;2022-07-12T13:47:18;1.35;;;0.60;;
20012;SDS011;10167;42.852;23.042;2022-07-12T13:49:46;4.25;;;0.77;;
20012;SDS011;10167;42.852;23.042;2022-07-12T13:52:14;0.98;;;0.80;;
20012;SDS011;10167;42.852;23.042;2022-07-12T13:54:41;1.90;;;0.45;;
20012;SDS011;10167;42.852;23.042;2022-07-12T13:57:09;1.90;;;0.70;;
20012;SDS011;10167;42.852;23.042;2022-07-12T14:04:41;1.10;;;0.80;;
20012;SDS011;10167;42.852;23.042;2022-07-12T14:07:08;0.93;;;0.77;;
20012;SDS011;10167;42.852;23.042;2022-07-12T14:09:36;1.45;;;0.63;;
20012;SDS011;10167;42.852;23.042;2022-07-12T14:12:04;1.13;;;0.73;;
20012;SDS011;10167;42.852;23.042;2022-07-12T14:14:34;1.02;;;0.60;;
20012;SDS011;10167;42.852;23.042;2022-07-12T14:17:20;0.90;;;0.70;;
20012;SDS011;10167;42.852;23.042;2022-07-12T14:19:49;1.42;;;0.70;;
20012;SDS011;10167;42.852;23.042;2022-07-12T14:27:20;3.22;;;0.63;;
20012;SDS011;10167;42.852;23.042;2022-07-12T14:29:47;1.02;;;0.90;;
20012;SDS011;10167;42.852;23.042;2022-07-12T14:32:15;1.92;;;0.90;;
20012;SDS011;10167;42.852;23.042;2022-07-12T14:34:43;0.98;;;0.90;;
20012;SDS011;10167;42.852;23.042;2022-07-12T14:37:10;2.25;;;0.90;;
20012;SDS011;10167;42.852;23.042;2022-07-12T14:39:38;0.80;;;0.73;;
20012;SDS011;10167;42.852;23.042;2022-07-12T14:42:06;2.05;;;1.02;;
20012;SDS011;10167;42.852;23.042;2022-07-12T14:49:22;1.30;;;0.90;;
20012;SDS011;10167;42.852;23.042;2022-07-12T14:51:50;2.67;;;1.90;;
20012;SDS011;10167;42.852;23.042;2022-07-12T14:54:17;0.98;;;0.85;;
20012;SDS011;10167;42.852;23.042;2022-07-12T14:56:45;2.22;;;1.15;;
20012;SDS011;10167;42.852;23.042;2022-07-12T14:59:19;4.57;;;2.42;;
20012;SDS011;10167;42.852;23.042;2022-07-12T15:01:48;1.42;;;0.80;;
20012;SDS011;10167;42.852;23.042;2022-07-12T15:04:16;3.50;;;1.50;;
20012;SDS011;10167;42.852;23.042;2022-07-12T15:11:18;1.77;;;1.08;;
20012;SDS011;10167;42.852;23.042;2022-07-12T15:13:45;5.18;;;2.53;;
20012;SDS011;10167;42.852;23.042;2022-07-12T15:16:13;2.42;;;1.42;;
20012;SDS011;10167;42.852;23.042;2022-07-12T15:18:41;6.38;;;0.85;;
20012;SDS011;10167;42.852;23.042;2022-07-12T15:21:09;0.95;;;0.93;;
20012;SDS011;10167;42.852;23.042;2022-07-12T15:23:37;0.60;;;0.60;;
20012;SDS011;10167;42.852;23.042;2022-07-12T15:26:04;1.63;;;1.15;;
20012;SDS011;10167;42.852;23.042;2022-07-12T15:33:29;0.70;;;0.65;;
20012;SDS011;10167;42.852;23.042;2022-07-12T15:35:57;7.15;;;1.15;;
20012;SDS011;10167;42.852;23.042;2022-07-12T15:38:25;1.35;;;0.98;;
20012;SDS011;10167;42.852;23.042;2022-07-12T15:40:52;1.63;;;0.90;;
20012;SDS011;10167;42.852;23.042;2022-07-12T15:43:21;1.15;;;0.80;;
20012;SDS011;10167;42.852;23.042;2022-07-12T15:45:48;0.90;;;0.80;;
20012;SDS011;10167;42.852;23.042;2022-07-12T15:48:16;6.53;;;0.80;;
20012;SDS011;10167;42.852;23.042;2022-07-12T15:55:25;0.95;;;0.90;;
20012;SDS011;10167;42.852;23.042;2022-07-12T15:57:53;2.25;;;1.00;;
20012;SDS011;10167;42.852;23.042;2022-07-12T16:00:21;1.20;;;1.00;;
20012;SDS011;10167;42.852;23.042;2022-07-12T16:02:50;1.20;;;0.80;;
20012;SDS011;10167;42.852;23.042;2022-07-12T16:05:18;1.35;;;0.98;;
20012;SDS011;10167;42.852;23.042;2022-07-12T16:07:46;1.00;;;0.90;;
20012;SDS011;10167;42.852;23.042;2022-07-12T16:10:14;1.20;;;1.10;;
20012;SDS011;10167;42.852;23.042;2022-07-12T16:16:58;1.75;;;0.80;;
20012;SDS011;10167;42.852;23.042;2022-07-12T16:19:26;1.63;;;1.17;;
20012;SDS011;10167;42.852;23.042;2022-07-12T16:21:54;1.75;;;1.30;;
20012;SDS011;10167;42.852;23.042;2022-07-12T16:24:22;1.17;;;1.08;;
20012;SDS011;10167;42.852;23.042;2022-07-12T16:26:50;1.45;;;1.35;;
20012;SDS011;10167;42.852;23.042;2022-07-12T16:29:18;4.28;;;1.90;;
20012;SDS011;10167;42.852;23.042;2022-07-12T16:31:46;1.40;;;1.30;;
20012;SDS011;10167;42.852;23.042;2022-07-12T16:37:18;3.08;;;1.75;;
20012;SDS011;10167;42.852;23.042;2022-07-12T16:39:46;3.70;;;1.73;;
20012;SDS011;10167;42.852;23.042;2022-07-12T16:42:13;11.13;;;2.20;;
20012;SDS011;10167;42.852;23.042;2022-07-12T16:44:41;2.70;;;1.67;;
20012;SDS011;10167;42.852;23.042;2022-07-12T16:47:09;9.60;;;2.95;;
20012;SDS011;10167;42.852;23.042;2022-07-12T16:49:37;4.70;;;2.13;;
20012;SDS011;10167;42.852;23.042;2022-07-12T16:52:04;1.60;;;1.30;;
20012;SDS011;10167;42.852;23.042;2022-07-12T16:59:00;1.38;;;1.20;;
20012;SDS011;10167;42.852;23.042;2022-07-12T17:01:28;1.85;;;1.42;;
20012;SDS011;10167;42.852;23.042;2022-07-12T17:03:56;1.40;;;1.30;;
20012;SDS011;10167;42.852;23.042;2022-07-12T17:06:24;1.48;;;1.38;;
20012;SDS011;10167;42.852;23.042;2022-07-12T17:08:54;1.95;;;1.23;;
20012;SDS011;10167;42.852;23.042;2022-07-12T17:11:21;2.47;;;1.40;;
20012;SDS011;10167;42.852;23.042;2022-07-12T17:13:49;1.55;;;1.45;;
20012;SDS011;10167;42.852;23.042;2022-07-12T17:19:02;3.33;;;1.13;;
20012;SDS011;10167;42.852;23.042;2022-07-12T17:21:30;2.45;;;1.60;;
20012;SDS011;10167;42.852;23.042;2022-07-12T17:23:58;2.17;;;1.38;;
20012;SDS011;10167;42.852;23.042;2022-07-12T17:29:08;2.67;;;1.30;;
20012;SDS011;10167;42.852;23.042;2022-07-12T17:31:36;2.92;;;1.30;;
20012;SDS011;10167;42.852;23.042;2022-07-12T17:34:05;1.50;;;1.20;;
20012;SDS011;10167;42.852;23.042;2022-07-12T17:38:13;1.95;;;1.30;;
20012;SDS011;10167;42.852;23.042;2022-07-12T17:40:41;1.88;;;1.20;;
20012;SDS011;10167;42.852;23.042;2022-07-12T17:43:08;3.25;;;1.42;;
20012;SDS011;10167;42.852;23.042;2022-07-12T17:45:36;2.22;;;1.60;;
20012;SDS011;10167;42.852;23.042;2022-07-12T17:48:04;1.20;;;1.20;;
20012;SDS011;10167;42.852;23.042;2022-07-12T17:50:32;5.30;;;1.52;;
20012;SDS011;10167;42.852;23.042;2022-07-12T17:52:59;1.63;;;1.50;;
20012;SDS011;10167;42.852;23.042;2022-07-12T17:59:54;1.73;;;1.48;;
20012;SDS011;10167;42.852;23.042;2022-07-12T18:02:22;1.75;;;1.13;;
20012;SDS011;10167;42.852;23.042;2022-07-12T18:04:50;3.17;;;1.20;;
20012;SDS011;10167;42.852;23.042;2022-07-12T18:07:17;1.45;;;1.30;;
20012;SDS011;10167;42.852;23.042;2022-07-12T18:09:45;1.48;;;1.38;;
20012;SDS011;10167;42.852;23.042;2022-07-12T18:12:12;1.60;;;1.35;;
20012;SDS011;10167;42.852;23.042;2022-07-12T18:14:59;3.15;;;1.70;;
20012;SDS011;10167;42.852;23.042;2022-07-12T18:22:57;3.42;;;1.50;;
20012;SDS011;10167;42.852;23.042;2022-07-12T18:25:25;2.45;;;1.90;;
20012;SDS011;10167;42.852;23.042;2022-07-12T18:27:53;2.63;;;2.00;;
20012;SDS011;10167;42.852;23.042;2022-07-12T18:30:21;3.63;;;2.00;;
20012;SDS011;10167;42.852;23.042;2022-07-12T18:32:49;2.03;;;1.65;;
20012;SDS011;10167;42.852;23.042;2022-07-12T18:35:17;3.10;;;1.88;;
20012;SDS011;10167;42.852;23.042;2022-07-12T18:37:45;3.25;;;1.80;;
20012;SDS011;10167;42.852;23.042;2022-07-12T18:45:12;2.45;;;1.63;;
20012;SDS011;10167;42.852;23.042;2022-07-12T18:47:39;3.28;;;2.17;;